Aeroporto :
LOGIN :

Iscrizione | Disclaimer

   EN    FR    IT 

 










Sommario :    VFR   VFR Marginale   IFR   IFR Intensivo   IFR Molto Intensivo
Visibilità : 
Base nubi : 
>= 8 km
>= 3000ft
5 / 8 km
1000 / 3000 ft
1500m / 5 km
500 / 1000 ft
800 / 1500m
200 / 500 ft
< 800m
< 200 ft
Simboli :   Temporali  Nebbia  Neve Forte  Precipitazioni Forti  Vento > 20 kt
SIGMETs :   Varie  Temporali  Ghiacco  Turbolenza  Onda orograficha  Ceneri Vulcaniche







- Altitudine del aeroporto : 202 ft
- Codice IATA : LGW
- Carte del aeroporto


EGKK - London Gatwick

ULTIMO METAR :
  • 220920Z 16008KT 130V190 CAVOK 20/18 Q1003

METARs OBSOLETI :
  • 220850Z 16007KT 130V190 CAVOK 20/17 Q1003
  • 220820Z VRB03KT CAVOK 19/18 Q1003
  • 220750Z 09004KT 9999 FEW044 18/17 Q1003
  • 220720Z VRB03KT 9999 FEW020 SCT048 17/17 Q1003
  • 220650Z 08004KT 9999 FEW017 17/16 Q1003 RESHRA

TAF TAF EGKK
Valido dal 22 a 06 ore il 23 a 12 ore UTC


220503Z 2206/2312 11006KT 9999 SCT045
TEMPO 2206/2214 6000 RA SHRA
PROB30
TEMPO 2206/2207 4000 +SHRA
BECMG 2207/2210 19010KT BKN040
PROB40
TEMPO 2209/2214 3000 +SHRA BKN009 BKN025CB
BECMG 2302/2305 25006KT
PROB40
TEMPO 2302/2307 BKN008
Nessun NOTAM noto per questo aeroporto.



MetMap, La meteo Aeronautica in un colpo d'occhio ! - Copyright ORBIFLY Dicembre 2007 - Disclaimer

ORBIFLY MET'MAP TEAM :

Programmazione e sviluppo : Alexandra Zaïnal
Concezione e sviluppo : Baudouin d'Aumeries
Co-Programmazione e sviluppo : Marc-Olivier Méhu
Supporto tecnico e logistico : Manuel Goepfert
Aiuto per la traduzione : Arnaldo La Scala

Contatto : metmap@orbifly.com




FONTI E CREDITI :

   NOAA